This is the latest recevied weather packets stored in our database for station/object TF3VP. If no packets are shown the sender has not sent any weather packets the latest 1 day(s).
| Time | Temp. | Humidity | Pressure | Rain* | Wind** | Luminosity | Snow |
|---|---|---|---|---|---|---|---|
| 1778106748 | 0.56° C | 54% | 1020.9 hPa | 0 mm | - | 0 W/m² | - |
| 1778105537 | 0.56° C | 54% | 1020.9 hPa | 0 mm | - | 0 W/m² | - |
| 1778104631 | 1.11° C | 54% | 1020.6 hPa | 0 mm | - | 0 W/m² | - |
| 1778103419 | 1.67° C | 54% | 1020.9 hPa | 0 mm | - | 12 W/m² | - |
| 1778103116 | 1.67° C | 53% | 1020.6 hPa | 0 mm | - | 34 W/m² | - |
| 1778101901 | 1.67° C | 53% | 1020.9 hPa | 0 mm | - | 25 W/m² | - |
| 1778100686 | 2.22° C | 54% | 1021.2 hPa | 0 mm | - | 25 W/m² | - |
| 1778099174 | 2.78° C | 52% | 1020.9 hPa | 0 mm | - | 82 W/m² | - |
| 1778098264 | 2.78° C | 51% | 1021.2 hPa | 0 mm | - | 61 W/m² | - |
| 1778094928 | 3.33° C | 48% | 1020.9 hPa | 0 mm | - | 67 W/m² | - |
| 1778092502 | 4.44° C | 44% | 1020.9 hPa | 0 mm | - | 287 W/m² | - |
| 1778090684 | 4.44° C | 46% | 1020.9 hPa | 0 mm | - | 305 W/m² | - |
| 1778090078 | 4.44° C | 44% | 1020.9 hPa | 0 mm | - | 296 W/m² | - |
| 1778088260 | 4.44° C | 46% | 1020.6 hPa | 0 mm | - | 342 W/m² | - |
| 1778086141 | 4.44° C | 47% | 1020.9 hPa | 0 mm | - | 372 W/m² | - |
| 1778085536 | 4.44° C | 48% | 1020.9 hPa | 0 mm | - | 361 W/m² | - |
| 1778084925 | 4.44° C | 48% | 1021.2 hPa | 0 mm | - | 388 W/m² | - |
| 1778083710 | 4.44° C | 47% | 1021.2 hPa | 0 mm | - | 125 W/m² | - |
| 1778082801 | 4.44° C | 45% | 1021.2 hPa | 0 mm | - | 380 W/m² | - |
| 1778081371 | 4.44° C | 45% | 1021.2 hPa | 0 mm | - | 133 W/m² | - |
| 1778080766 | 5° C | 43% | 1021.2 hPa | 0 mm | - | 122 W/m² | - |
| 1778077737 | 5° C | 41% | 1021.6 hPa | 0 mm | - | 165 W/m² | - |
| 1778075922 | 5.56° C | 37% | 1021.6 hPa | 0 mm | - | 359 W/m² | - |
| 1778075315 | 5.56° C | 37% | 1021.6 hPa | 0 mm | - | 351 W/m² | - |
| 1778074405 | 5° C | 39% | 1021.6 hPa | 0 mm | - | 324 W/m² | - |
* Rain latest hour (hover to see other rain measurements)
** Current wind speed in m/s (hover to see current wind gust speed)